createdAt,value
2022-12-12T00:01:45.547Z,17.77
2022-12-12T00:04:16.471Z,16.90
2022-12-12T00:06:52.988Z,16.27
2022-12-12T00:09:25.798Z,15.57
2022-12-12T00:12:13.976Z,17.13
2022-12-12T00:14:47.077Z,16.60
2022-12-12T00:18:03.748Z,16.07
2022-12-12T00:20:37.818Z,16.13
2022-12-12T00:23:07.315Z,16.10
2022-12-12T00:25:35.813Z,16.53
2022-12-12T00:28:26.042Z,17.77
2022-12-12T00:30:59.699Z,17.00
2022-12-12T00:33:28.452Z,17.77
2022-12-12T00:36:03.361Z,19.00
2022-12-12T00:38:31.500Z,17.53
2022-12-12T00:41:01.734Z,17.60
2022-12-12T00:43:32.632Z,19.27
2022-12-12T00:46:03.515Z,19.43
2022-12-12T00:48:31.592Z,19.17
2022-12-12T00:51:17.117Z,17.27
2022-12-12T00:53:45.942Z,18.17
2022-12-12T00:56:16.325Z,17.83
2022-12-12T00:58:46.200Z,18.30
2022-12-12T01:01:17.896Z,18.40
2022-12-12T01:03:46.651Z,19.07
2022-12-12T01:06:38.140Z,18.83
2022-12-12T01:09:06.253Z,17.33
2022-12-12T01:11:35.111Z,19.00
2022-12-12T01:14:06.543Z,16.67
2022-12-12T01:16:57.048Z,17.77
2022-12-12T01:19:26.519Z,16.80
2022-12-12T01:22:20.415Z,18.20
2022-12-12T01:24:50.914Z,18.53
2022-12-12T01:27:23.262Z,17.83
2022-12-12T01:30:00.673Z,18.27
2022-12-12T01:32:35.388Z,17.47
2022-12-12T01:35:07.343Z,16.43
2022-12-12T01:37:38.884Z,16.27
2022-12-12T01:40:16.139Z,17.10
2022-12-12T01:42:45.855Z,17.83
2022-12-12T01:45:51.598Z,16.83
2022-12-12T01:48:24.416Z,17.70
2022-12-12T01:50:54.079Z,15.43
2022-12-12T01:53:30.639Z,17.23
2022-12-12T01:56:19.977Z,15.97
2022-12-12T01:58:57.350Z,17.17
2022-12-12T02:01:49.315Z,17.40
2022-12-12T02:04:19.979Z,18.07
2022-12-12T02:07:08.580Z,17.67
2022-12-12T02:09:59.700Z,17.77
2022-12-12T02:12:30.716Z,17.13
2022-12-12T02:14:59.372Z,18.67
2022-12-12T02:18:03.673Z,17.60
2022-12-12T02:20:46.756Z,17.50
2022-12-12T02:23:54.740Z,16.70
2022-12-12T02:26:47.313Z,17.67
2022-12-12T02:29:59.918Z,17.43
2022-12-12T02:32:38.031Z,17.40
2022-12-12T02:35:20.854Z,16.90
2022-12-12T02:37:55.853Z,17.43
2022-12-12T02:40:37.635Z,17.87
2022-12-12T02:43:15.884Z,16.60
2022-12-12T02:45:52.896Z,17.50
2022-12-12T02:48:39.685Z,17.07
2022-12-12T02:51:15.223Z,18.50
2022-12-12T02:54:06.863Z,17.47
2022-12-12T02:56:50.667Z,18.10
2022-12-12T02:59:27.072Z,16.77
2022-12-12T03:02:33.535Z,17.83
2022-12-12T03:09:26.984Z,16.23
2022-12-12T03:12:05.852Z,17.10
2022-12-12T03:14:49.548Z,16.93
2022-12-12T03:17:33.906Z,17.17
2022-12-12T03:20:08.556Z,16.97
2022-12-12T03:22:45.487Z,17.83
2022-12-12T03:25:18.682Z,16.70
2022-12-12T03:27:54.628Z,17.37
2022-12-12T03:30:25.576Z,16.33
2022-12-12T03:32:59.296Z,17.10
2022-12-12T03:35:54.439Z,18.53
2022-12-12T03:38:58.159Z,18.07
2022-12-12T03:41:33.944Z,18.50
2022-12-12T03:44:10.507Z,17.03
2022-12-12T03:47:07.852Z,18.53
2022-12-12T03:49:45.493Z,17.67
2022-12-12T03:52:22.533Z,19.40
2022-12-12T03:54:56.572Z,18.23
2022-12-12T03:57:29.127Z,18.90
2022-12-12T04:00:05.671Z,18.53
2022-12-12T04:02:41.416Z,18.30
2022-12-12T04:05:16.991Z,17.70
2022-12-12T04:07:50.599Z,18.33
2022-12-12T04:10:41.807Z,18.23
2022-12-12T04:13:34.277Z,18.20
2022-12-12T04:16:08.465Z,17.00
2022-12-12T04:18:45.505Z,17.93
2022-12-12T04:21:40.008Z,18.80
2022-12-12T04:24:23.149Z,18.27
2022-12-12T04:27:00.725Z,18.27
2022-12-12T04:29:56.299Z,18.13
2022-12-12T04:32:28.299Z,18.03
2022-12-12T04:35:00.140Z,18.70
2022-12-12T04:37:54.278Z,19.00
2022-12-12T04:40:55.640Z,17.80
2022-12-12T04:43:37.531Z,17.90
2022-12-12T04:46:33.335Z,17.57
2022-12-12T04:49:05.204Z,17.23
2022-12-12T04:51:36.095Z,18.03
2022-12-12T04:54:47.850Z,18.43
2022-12-12T04:58:05.191Z,16.50
2022-12-12T05:00:45.436Z,17.37
2022-12-12T05:03:19.914Z,17.17
2022-12-12T05:06:13.088Z,16.53
2022-12-12T05:08:43.961Z,16.47
2022-12-12T05:11:14.404Z,17.00
2022-12-12T05:14:05.302Z,17.67
2022-12-12T05:16:42.409Z,17.43
2022-12-12T05:19:10.865Z,17.23
2022-12-12T05:21:41.799Z,17.77
2022-12-12T05:24:13.146Z,17.17
2022-12-12T05:27:01.169Z,17.83
2022-12-12T05:29:34.645Z,17.27
2022-12-12T05:32:26.327Z,17.17
2022-12-12T05:34:55.051Z,17.27
2022-12-12T05:37:51.459Z,17.77
2022-12-12T05:40:22.692Z,16.90
2022-12-12T05:42:51.850Z,18.10
2022-12-12T05:45:20.599Z,18.40
2022-12-12T05:47:51.726Z,17.10
2022-12-12T05:50:27.707Z,16.60
2022-12-12T05:52:56.140Z,17.33
2022-12-12T05:55:24.295Z,16.73
2022-12-12T05:57:52.363Z,16.33
2022-12-12T06:00:21.089Z,17.27
2022-12-12T06:02:49.783Z,17.33
2022-12-12T06:05:19.942Z,16.60
2022-12-12T06:07:48.433Z,17.27
2022-12-12T06:10:16.631Z,17.47
2022-12-12T06:12:45.035Z,16.27
2022-12-12T06:15:13.242Z,18.53
2022-12-12T06:17:41.630Z,17.33
2022-12-12T06:20:10.443Z,16.80
2022-12-12T06:22:42.521Z,16.80
2022-12-12T06:25:11.473Z,16.63
2022-12-12T06:27:40.219Z,16.87
2022-12-12T06:30:09.983Z,16.00
2022-12-12T06:32:39.355Z,16.83
2022-12-12T06:35:11.968Z,16.87
2022-12-12T06:37:41.739Z,17.03
2022-12-12T06:40:11.284Z,16.77
2022-12-12T06:42:43.294Z,17.50
2022-12-12T06:45:16.166Z,15.73
2022-12-12T06:47:44.740Z,17.67
2022-12-12T06:50:12.865Z,16.37
2022-12-12T06:52:42.777Z,16.23
2022-12-12T06:55:11.118Z,17.20
2022-12-12T06:57:40.381Z,16.60
2022-12-12T07:00:10.306Z,15.93
2022-12-12T07:02:38.391Z,16.63
2022-12-12T07:05:08.261Z,17.27
2022-12-12T07:07:36.230Z,16.23
2022-12-12T07:10:06.441Z,16.93
2022-12-12T07:12:36.091Z,17.23
2022-12-12T07:15:04.268Z,16.70
2022-12-12T07:17:32.791Z,16.23
2022-12-12T07:20:01.037Z,16.87
2022-12-12T07:22:29.021Z,17.40
2022-12-12T07:24:57.647Z,17.27
2022-12-12T07:27:26.984Z,16.53
2022-12-12T07:29:54.947Z,17.47
2022-12-12T07:32:23.341Z,16.50
2022-12-12T07:34:51.375Z,16.80
2022-12-12T07:37:19.449Z,16.07
2022-12-12T07:39:47.407Z,16.20
2022-12-12T07:42:15.405Z,15.73
2022-12-12T07:44:44.728Z,17.47
2022-12-12T07:47:12.677Z,15.23
2022-12-12T07:49:40.629Z,17.00
2022-12-12T07:52:08.799Z,16.90
2022-12-12T07:54:36.758Z,15.20
2022-12-12T07:57:04.841Z,15.93
2022-12-12T07:59:36.428Z,16.27
2022-12-12T08:02:06.128Z,16.67
2022-12-12T08:04:34.594Z,16.13
2022-12-12T08:07:08.308Z,16.57
2022-12-12T08:09:37.798Z,16.23
2022-12-12T08:12:06.443Z,17.57
2022-12-12T08:14:34.796Z,17.57
2022-12-12T08:17:02.900Z,15.80
2022-12-12T08:20:13.538Z,16.67
2022-12-12T08:23:02.357Z,17.37
2022-12-12T08:25:34.167Z,15.03
2022-12-12T08:28:02.272Z,17.33
2022-12-12T08:30:30.185Z,15.83
2022-12-12T08:32:59.195Z,18.00
2022-12-12T08:35:32.363Z,17.53
2022-12-12T08:38:00.797Z,17.53
2022-12-12T08:40:28.831Z,17.67
2022-12-12T08:42:56.925Z,17.27
2022-12-12T08:45:24.892Z,16.87
2022-12-12T08:47:53.465Z,17.47
2022-12-12T08:50:21.900Z,17.60
2022-12-12T08:52:53.448Z,16.80
2022-12-12T08:55:22.036Z,16.83
2022-12-12T08:57:50.542Z,18.27
2022-12-12T09:00:19.349Z,17.33
2022-12-12T09:02:48.066Z,18.73
2022-12-12T09:05:17.334Z,18.47
2022-12-12T09:07:46.119Z,22.40
2022-12-12T09:10:16.204Z,20.10
2022-12-12T09:12:44.833Z,19.87
2022-12-12T09:15:13.752Z,21.50
2022-12-12T09:17:42.414Z,23.27
2022-12-12T09:20:11.314Z,22.83
2022-12-12T09:22:42.514Z,23.17
2022-12-12T09:25:12.038Z,23.90
2022-12-12T09:27:42.061Z,25.40
2022-12-12T09:30:14.724Z,26.47
2022-12-12T09:32:45.423Z,24.67
2022-12-12T09:35:13.916Z,27.10
2022-12-12T09:37:42.444Z,29.30
2022-12-12T09:40:17.624Z,25.97
2022-12-12T09:42:51.891Z,26.37
2022-12-12T09:45:21.535Z,25.90
2022-12-12T09:47:54.835Z,27.83
2022-12-12T09:50:30.815Z,28.00
2022-12-12T09:53:01.764Z,26.90
2022-12-12T09:55:41.297Z,26.97
2022-12-12T09:58:26.859Z,24.40
2022-12-12T10:01:03.202Z,25.40
2022-12-12T10:03:51.448Z,25.43
2022-12-12T10:06:36.924Z,25.60
2022-12-12T10:09:33.977Z,24.50
2022-12-12T10:12:08.429Z,24.37
2022-12-12T10:14:42.199Z,23.80
2022-12-12T10:17:18.710Z,21.87
2022-12-12T10:19:53.014Z,22.43
2022-12-12T10:22:29.969Z,21.20
2022-12-12T10:25:07.879Z,19.67
2022-12-12T10:27:36.329Z,20.03
2022-12-12T10:30:17.303Z,18.17
2022-12-12T10:33:00.555Z,18.70
2022-12-12T10:35:33.711Z,18.27
2022-12-12T10:38:14.006Z,16.93
2022-12-12T10:41:03.911Z,18.70
2022-12-12T10:43:39.141Z,17.00
2022-12-12T10:46:17.834Z,18.60
2022-12-12T10:48:48.773Z,17.47
2022-12-12T10:51:19.801Z,17.97
2022-12-12T10:53:48.273Z,18.90
2022-12-12T10:56:24.394Z,17.33
2022-12-12T10:58:54.746Z,17.07
2022-12-12T11:01:52.383Z,17.50
2022-12-12T11:04:16.389Z,17.47
2022-12-12T11:06:49.607Z,16.60
2022-12-12T11:09:21.150Z,16.80
2022-12-12T11:12:00.370Z,17.30
2022-12-12T11:14:34.908Z,15.90
2022-12-12T11:17:19.847Z,15.57
2022-12-12T11:19:48.503Z,16.70
2022-12-12T11:22:18.083Z,16.47
2022-12-12T11:24:49.123Z,16.00
2022-12-12T11:27:22.956Z,17.27
2022-12-12T11:29:54.261Z,16.97
2022-12-12T11:32:27.350Z,17.00
2022-12-12T11:34:59.565Z,16.77
2022-12-12T11:37:33.017Z,16.47
2022-12-12T11:40:03.929Z,17.00
2022-12-12T11:42:34.623Z,16.70
2022-12-12T11:45:06.097Z,16.63
2022-12-12T11:47:41.660Z,17.07
2022-12-12T11:50:25.427Z,15.40
2022-12-12T11:52:55.766Z,14.50
2022-12-12T11:55:38.262Z,14.50
2022-12-12T11:58:17.397Z,15.30
2022-12-12T12:00:51.779Z,15.00
2022-12-12T12:03:33.079Z,15.27
2022-12-12T12:06:18.153Z,14.70
2022-12-12T12:09:03.876Z,14.37
2022-12-12T12:11:41.956Z,15.33
2022-12-12T12:14:27.472Z,14.90
2022-12-12T12:17:13.543Z,15.17
2022-12-12T12:20:46.816Z,13.73
2022-12-12T12:23:24.855Z,13.50
2022-12-12T12:26:00.245Z,14.47
2022-12-12T12:29:06.155Z,13.77
2022-12-12T12:32:40.878Z,14.07
2022-12-12T12:35:29.319Z,13.43
2022-12-12T12:38:11.423Z,12.87
2022-12-12T12:41:02.333Z,14.57
2022-12-12T12:43:46.002Z,13.47
2022-12-12T12:46:27.832Z,13.57
2022-12-12T12:49:03.435Z,13.63
2022-12-12T12:51:37.091Z,13.60
2022-12-12T12:54:11.552Z,13.70
2022-12-12T12:56:49.621Z,14.70
2022-12-12T12:59:21.075Z,13.90
2022-12-12T13:01:57.547Z,13.13
2022-12-12T13:04:30.519Z,12.53
2022-12-12T13:07:08.375Z,11.77
2022-12-12T13:09:43.081Z,12.60
2022-12-12T13:12:17.559Z,12.13
2022-12-12T13:14:54.148Z,12.77
2022-12-12T13:17:27.876Z,11.50
2022-12-12T13:20:01.155Z,11.67
2022-12-12T13:22:54.849Z,10.63
2022-12-12T13:25:32.709Z,12.43
2022-12-12T13:28:03.563Z,11.67
2022-12-12T13:30:42.682Z,11.17
2022-12-12T13:33:28.047Z,12.33
2022-12-12T13:36:06.199Z,10.83
2022-12-12T13:38:36.302Z,10.80
2022-12-12T13:41:06.610Z,10.67
2022-12-12T13:43:45.090Z,10.23
2022-12-12T13:46:41.657Z,10.47
2022-12-12T13:49:19.270Z,8.97
2022-12-12T13:51:47.604Z,9.20
2022-12-12T13:54:52.491Z,9.50
2022-12-12T13:57:31.641Z,9.43
2022-12-12T14:00:30.314Z,9.17
2022-12-12T14:03:07.293Z,8.63
2022-12-12T14:05:39.857Z,8.10
2022-12-12T14:08:21.271Z,9.30
2022-12-12T14:11:01.527Z,9.00
2022-12-12T14:13:38.828Z,8.67
2022-12-12T14:16:17.855Z,8.70
2022-12-12T14:19:14.841Z,9.33
2022-12-12T14:21:47.015Z,8.77
2022-12-12T14:24:48.094Z,8.80
2022-12-12T14:27:16.620Z,9.60
2022-12-12T14:29:47.267Z,8.67
2022-12-12T14:32:40.610Z,8.90
2022-12-12T14:35:30.211Z,9.50
2022-12-12T14:38:10.061Z,9.23
2022-12-12T14:40:45.315Z,8.57
2022-12-12T14:43:22.238Z,8.47
2022-12-12T14:45:57.572Z,9.13
2022-12-12T14:48:28.238Z,9.07
2022-12-12T14:51:09.302Z,8.37
2022-12-12T14:53:49.124Z,9.37
2022-12-12T14:56:20.737Z,8.23
2022-12-12T14:58:58.322Z,9.37
2022-12-12T15:01:33.045Z,7.87
2022-12-12T15:04:03.413Z,8.10
2022-12-12T15:06:35.122Z,7.60
2022-12-12T15:09:19.668Z,9.00
2022-12-12T15:11:48.770Z,8.50
2022-12-12T15:14:21.123Z,9.00
2022-12-12T15:16:54.557Z,8.57
2022-12-12T15:19:28.041Z,9.60
2022-12-12T15:21:56.356Z,9.47
2022-12-12T15:24:27.503Z,10.37
2022-12-12T15:26:57.904Z,9.90
2022-12-12T15:29:28.622Z,9.90
2022-12-12T15:32:01.831Z,10.70
2022-12-12T15:34:36.145Z,10.73
2022-12-12T15:37:21.556Z,10.40
2022-12-12T15:40:18.133Z,11.27
2022-12-12T15:42:51.677Z,10.80
2022-12-12T15:45:24.313Z,11.73
2022-12-12T15:47:55.067Z,11.67
2022-12-12T15:50:25.729Z,11.30
2022-12-12T15:53:03.255Z,10.73
2022-12-12T15:55:31.481Z,11.40
2022-12-12T15:57:59.911Z,11.50
2022-12-12T16:00:39.834Z,10.37
2022-12-12T16:03:22.905Z,10.17
2022-12-12T16:06:04.177Z,10.73
2022-12-12T16:08:44.907Z,10.73
2022-12-12T16:11:33.732Z,10.40
2022-12-12T16:14:01.732Z,10.93
2022-12-12T16:16:40.051Z,10.97
2022-12-12T16:19:51.838Z,10.73
2022-12-12T16:22:37.354Z,10.23
2022-12-12T16:25:18.435Z,10.47
2022-12-12T16:27:49.603Z,11.43
2022-12-12T16:30:17.892Z,11.70
2022-12-12T16:32:46.029Z,12.03
2022-12-12T16:35:18.365Z,11.57
2022-12-12T16:37:47.223Z,12.00
2022-12-12T16:40:16.428Z,12.13
2022-12-12T16:42:46.303Z,12.43
2022-12-12T16:45:14.541Z,14.47
2022-12-12T16:47:42.503Z,14.53
2022-12-12T16:50:14.463Z,16.10
2022-12-12T16:52:44.280Z,15.50
2022-12-12T16:55:17.710Z,17.93
2022-12-12T16:58:13.001Z,21.03
2022-12-12T17:00:43.903Z,19.13
2022-12-12T17:03:15.003Z,19.97
2022-12-12T17:05:44.196Z,20.20
2022-12-12T17:08:15.339Z,19.23
2022-12-12T17:10:44.320Z,15.27
2022-12-12T17:13:16.118Z,14.83
2022-12-12T17:15:44.359Z,14.60
2022-12-12T17:18:12.791Z,14.30
2022-12-12T17:20:41.084Z,13.57
2022-12-12T17:23:29.905Z,14.27
2022-12-12T17:26:04.091Z,13.80
2022-12-12T17:28:36.242Z,13.07
2022-12-12T17:31:08.439Z,14.00
2022-12-12T17:33:42.329Z,13.13
2022-12-12T17:36:14.515Z,15.10
2022-12-12T17:38:43.827Z,15.37
2022-12-12T17:41:12.705Z,14.33
2022-12-12T17:43:42.225Z,14.03
2022-12-12T17:46:14.401Z,14.47
2022-12-12T17:48:46.956Z,14.10
2022-12-12T17:51:16.856Z,13.80
2022-12-12T17:53:46.296Z,13.70
2022-12-12T17:56:16.784Z,13.57
2022-12-12T17:58:46.388Z,14.67
2022-12-12T18:01:17.452Z,15.03
2022-12-12T18:03:46.176Z,15.17
2022-12-12T18:06:14.757Z,14.20
2022-12-12T18:08:43.152Z,15.23
2022-12-12T18:11:14.940Z,14.40
2022-12-12T18:13:43.885Z,14.30
2022-12-12T18:16:13.670Z,15.53
2022-12-12T18:18:42.116Z,14.83
2022-12-12T18:21:15.806Z,15.13
2022-12-12T18:23:52.734Z,14.63
2022-12-12T18:26:23.943Z,15.77
2022-12-12T18:28:56.531Z,14.57
2022-12-12T18:31:24.886Z,14.93
2022-12-12T18:33:53.060Z,14.07
2022-12-12T18:36:26.905Z,14.33
2022-12-12T18:38:55.957Z,15.30
2022-12-12T18:41:26.323Z,14.97
2022-12-12T18:43:54.434Z,14.20
2022-12-12T18:46:24.690Z,15.10
2022-12-12T18:48:52.911Z,14.80
2022-12-12T18:51:23.561Z,14.90
2022-12-12T18:53:53.232Z,14.90
2022-12-12T18:56:29.730Z,14.60
2022-12-12T18:59:04.293Z,14.97
2022-12-12T19:01:34.965Z,16.27
2022-12-12T19:04:11.407Z,16.33
2022-12-12T19:06:43.973Z,16.20
2022-12-12T19:09:16.877Z,15.90
2022-12-12T19:11:47.381Z,15.67
2022-12-12T19:14:17.712Z,16.63
2022-12-12T19:16:47.338Z,16.83
2022-12-12T19:19:36.829Z,16.50
2022-12-12T19:22:44.346Z,15.60
2022-12-12T19:25:14.482Z,16.90
2022-12-12T19:27:44.843Z,16.63
2022-12-12T19:30:16.086Z,15.67
2022-12-12T19:32:50.245Z,15.80
2022-12-12T19:35:21.791Z,15.87
2022-12-12T19:38:01.533Z,16.17
2022-12-12T19:40:29.616Z,16.43
2022-12-12T19:43:21.891Z,15.87
2022-12-12T19:45:53.456Z,15.37
2022-12-12T19:48:28.688Z,16.10
2022-12-12T19:50:57.244Z,15.10
2022-12-12T19:53:26.507Z,15.27
2022-12-12T19:55:56.232Z,15.90
2022-12-12T19:58:46.554Z,15.37
2022-12-12T20:01:18.422Z,15.50
2022-12-12T20:03:51.472Z,16.50
2022-12-12T20:06:21.109Z,16.53
2022-12-12T20:09:11.600Z,15.73
2022-12-12T20:11:42.870Z,16.27
2022-12-12T20:14:15.837Z,17.23
2022-12-12T20:16:44.914Z,16.27
2022-12-12T20:19:16.890Z,16.30
2022-12-12T20:22:03.549Z,16.60
2022-12-12T20:24:42.149Z,15.83
2022-12-12T20:27:11.420Z,16.50
2022-12-12T20:29:44.847Z,16.67
2022-12-12T20:32:16.217Z,15.50
2022-12-12T20:34:45.526Z,17.97
2022-12-12T20:37:34.533Z,17.77
2022-12-12T20:40:04.377Z,17.17
2022-12-12T20:42:37.790Z,16.77
2022-12-12T20:45:09.062Z,17.47
2022-12-12T20:47:37.652Z,16.30
2022-12-12T20:50:08.953Z,16.10
2022-12-12T20:52:37.061Z,17.73
2022-12-12T20:55:06.429Z,17.77
2022-12-12T20:57:34.822Z,18.13
2022-12-12T21:00:03.933Z,16.93
2022-12-12T21:02:36.595Z,17.63
2022-12-12T21:05:08.636Z,17.37
2022-12-12T21:07:37.758Z,17.03
2022-12-12T21:10:08.886Z,17.83
2022-12-12T21:12:40.132Z,18.20
2022-12-12T21:15:15.900Z,17.93
2022-12-12T21:17:47.323Z,17.70
2022-12-12T21:20:16.832Z,16.93
2022-12-12T21:23:06.311Z,16.57
2022-12-12T21:25:37.540Z,16.43
2022-12-12T21:28:48.552Z,17.10
2022-12-12T21:31:23.779Z,17.60
2022-12-12T21:33:56.114Z,16.87
2022-12-12T21:36:46.566Z,16.97
2022-12-12T21:39:15.334Z,15.67
2022-12-12T21:41:50.213Z,16.00
2022-12-12T21:44:21.253Z,16.63
2022-12-12T21:46:52.664Z,16.27
2022-12-12T21:49:28.529Z,16.37
2022-12-12T21:51:59.835Z,16.30
2022-12-12T21:54:29.043Z,16.80
2022-12-12T21:57:23.395Z,16.53
2022-12-12T21:59:54.505Z,16.07
2022-12-12T22:02:50.068Z,16.73
2022-12-12T22:05:19.980Z,15.77
2022-12-12T22:07:49.489Z,16.03
2022-12-12T22:10:20.535Z,16.00
2022-12-12T22:12:57.108Z,17.43
2022-12-12T22:15:27.336Z,17.13
2022-12-12T22:17:57.232Z,17.77
2022-12-12T22:20:27.341Z,17.47
2022-12-12T22:22:56.124Z,18.33
2022-12-12T22:25:44.663Z,17.87
2022-12-12T22:28:12.869Z,15.90
2022-12-12T22:30:42.164Z,17.13
2022-12-12T22:33:11.830Z,16.50
2022-12-12T22:35:44.824Z,16.47
2022-12-12T22:38:12.802Z,17.20
2022-12-12T22:40:40.913Z,16.83
2022-12-12T22:43:29.808Z,16.63
2022-12-12T22:46:03.130Z,16.63
2022-12-12T22:48:31.829Z,18.00
2022-12-12T22:51:24.737Z,16.47
2022-12-12T22:53:53.607Z,16.97
2022-12-12T22:56:43.350Z,16.07
2022-12-12T22:59:15.872Z,17.00
2022-12-12T23:01:45.661Z,16.90
2022-12-12T23:04:15.557Z,16.53
2022-12-12T23:06:45.002Z,17.77
2022-12-12T23:09:16.486Z,17.03
2022-12-12T23:11:48.956Z,16.83
2022-12-12T23:14:40.325Z,17.27
2022-12-12T23:17:08.658Z,16.33
2022-12-12T23:19:36.887Z,17.03
2022-12-12T23:22:06.870Z,16.70
2022-12-12T23:24:35.143Z,17.00
2022-12-12T23:27:05.244Z,15.80
2022-12-12T23:29:55.812Z,16.90
2022-12-12T23:32:24.547Z,14.47
2022-12-12T23:35:14.415Z,16.10
2022-12-12T23:37:44.712Z,15.73
2022-12-12T23:40:42.281Z,14.93
2022-12-12T23:43:11.232Z,15.20
2022-12-12T23:45:40.172Z,16.37
2022-12-12T23:48:09.123Z,15.37
2022-12-12T23:50:37.124Z,15.60
2022-12-12T23:53:10.596Z,15.60
2022-12-12T23:55:39.582Z,14.73
2022-12-12T23:58:08.987Z,15.13
